createdAt,value
2023-05-06T00:00:43.141Z,2.20
2023-05-06T00:02:45.406Z,1.50
2023-05-06T00:04:48.001Z,1.73
2023-05-06T00:06:50.478Z,1.90
2023-05-06T00:08:52.864Z,1.98
2023-05-06T00:10:55.277Z,1.63
2023-05-06T00:12:57.588Z,2.00
2023-05-06T00:14:59.733Z,1.25
2023-05-06T00:17:02.273Z,1.38
2023-05-06T00:19:04.525Z,1.65
2023-05-06T00:21:07.119Z,1.10
2023-05-06T00:23:09.238Z,1.65
2023-05-06T00:25:11.687Z,2.72
2023-05-06T00:27:13.949Z,1.98
2023-05-06T00:29:16.275Z,1.77
2023-05-06T00:31:18.498Z,1.40
2023-05-06T00:33:20.721Z,1.58
2023-05-06T00:35:22.812Z,1.42
2023-05-06T00:37:25.042Z,1.42
2023-05-06T00:39:27.322Z,2.25
2023-05-06T00:41:33.504Z,1.40
2023-05-06T00:43:35.756Z,1.90
2023-05-06T00:45:38.409Z,1.23
2023-05-06T00:47:40.810Z,2.20
2023-05-06T00:49:43.209Z,2.35
2023-05-06T00:51:45.668Z,1.40
2023-05-06T00:53:47.927Z,1.75
2023-05-06T00:55:51.616Z,2.30
2023-05-06T00:57:54.481Z,1.85
2023-05-06T00:59:56.627Z,2.22
2023-05-06T01:01:59.448Z,1.42
2023-05-06T01:04:01.804Z,1.80
2023-05-06T01:06:12.352Z,2.05
2023-05-06T01:08:24.021Z,2.17
2023-05-06T01:10:27.684Z,1.58
2023-05-06T01:12:37.832Z,1.60
2023-05-06T01:14:44.560Z,2.03
2023-05-06T01:16:51.033Z,1.67
2023-05-06T01:18:55.181Z,1.92
2023-05-06T01:20:57.562Z,1.92
2023-05-06T01:23:01.448Z,2.25
2023-05-06T01:25:03.563Z,1.70
2023-05-06T01:27:06.491Z,2.00
2023-05-06T01:29:08.923Z,2.28
2023-05-06T01:31:16.929Z,2.22
2023-05-06T01:33:30.624Z,2.85
2023-05-06T01:35:39.300Z,1.92
2023-05-06T01:37:47.692Z,1.90
2023-05-06T01:39:50.380Z,2.10
2023-05-06T01:41:53.906Z,2.20
2023-05-06T01:44:00.662Z,1.90
2023-05-06T01:46:03.735Z,2.15
2023-05-06T01:48:06.994Z,1.90
2023-05-06T01:50:10.061Z,2.63
2023-05-06T01:52:11.988Z,2.47
2023-05-06T01:54:14.337Z,2.00
2023-05-06T01:56:16.722Z,2.42
2023-05-06T01:58:18.722Z,2.33
2023-05-06T02:00:21.032Z,1.65
2023-05-06T02:02:24.539Z,2.05
2023-05-06T02:04:26.540Z,2.45
2023-05-06T02:06:28.459Z,2.67
2023-05-06T02:08:30.669Z,2.30
2023-05-06T02:10:32.674Z,2.45
2023-05-06T02:12:34.907Z,2.33
2023-05-06T02:14:36.937Z,2.50
2023-05-06T02:16:38.944Z,2.22
2023-05-06T02:18:41.730Z,2.58
2023-05-06T02:20:43.740Z,2.67
2023-05-06T02:22:45.981Z,2.35
2023-05-06T02:24:48.059Z,2.30
2023-05-06T02:26:50.079Z,2.63
2023-05-06T02:28:52.014Z,3.08
2023-05-06T02:30:57.290Z,2.25
2023-05-06T02:32:59.264Z,2.30
2023-05-06T02:35:01.328Z,2.00
2023-05-06T02:37:03.643Z,2.75
2023-05-06T02:39:05.896Z,2.92
2023-05-06T02:41:07.903Z,2.45
2023-05-06T02:43:09.954Z,3.00
2023-05-06T02:45:13.234Z,2.67
2023-05-06T02:47:15.623Z,2.35
2023-05-06T02:49:17.848Z,2.40
2023-05-06T02:51:19.856Z,2.70
2023-05-06T02:53:22.162Z,2.75
2023-05-06T02:55:24.297Z,2.25
2023-05-06T02:57:26.562Z,1.98
2023-05-06T02:59:28.638Z,2.88
2023-05-06T03:01:30.669Z,1.98
2023-05-06T03:03:33.774Z,2.85
2023-05-06T03:05:35.992Z,2.35
2023-05-06T03:07:38.728Z,2.70
2023-05-06T03:09:40.856Z,2.38
2023-05-06T03:11:42.900Z,2.25
2023-05-06T03:13:44.895Z,2.83
2023-05-06T03:15:52.432Z,3.40
2023-05-06T03:17:54.492Z,3.00
2023-05-06T03:19:56.847Z,2.70
2023-05-06T03:21:58.868Z,4.07
2023-05-06T03:24:01.172Z,2.70
2023-05-06T03:26:03.167Z,3.10
2023-05-06T03:28:05.654Z,2.95
2023-05-06T03:30:08.752Z,3.60
2023-05-06T03:32:10.687Z,3.15
2023-05-06T03:34:12.710Z,2.42
2023-05-06T03:36:14.843Z,3.20
2023-05-06T03:38:17.132Z,3.65
2023-05-06T03:40:19.114Z,3.28
2023-05-06T03:42:21.199Z,3.92
2023-05-06T03:44:23.187Z,4.05
2023-05-06T03:46:25.191Z,3.17
2023-05-06T03:48:27.180Z,4.30
2023-05-06T03:50:29.153Z,3.42
2023-05-06T03:52:31.225Z,3.15
2023-05-06T03:54:33.601Z,3.50
2023-05-06T03:56:36.256Z,3.95
2023-05-06T03:58:38.255Z,2.95
2023-05-06T04:00:40.289Z,3.42
2023-05-06T04:02:42.853Z,3.40
2023-05-06T04:04:44.941Z,3.15
2023-05-06T04:06:47.259Z,3.42
2023-05-06T04:08:49.314Z,3.50
2023-05-06T04:10:51.310Z,3.90
2023-05-06T04:12:53.389Z,3.28
2023-05-06T04:14:55.659Z,4.38
2023-05-06T04:16:57.695Z,3.58
2023-05-06T04:18:59.631Z,4.13
2023-05-06T04:21:01.619Z,3.63
2023-05-06T04:23:03.660Z,3.58
2023-05-06T04:25:06.932Z,4.50
2023-05-06T04:27:08.851Z,3.83
2023-05-06T04:29:10.895Z,3.72
2023-05-06T04:31:14.845Z,3.97
2023-05-06T04:33:16.920Z,3.95
2023-05-06T04:35:19.174Z,3.47
2023-05-06T04:37:21.343Z,4.25
2023-05-06T04:39:23.384Z,4.22
2023-05-06T04:41:26.311Z,4.78
2023-05-06T04:43:28.357Z,3.40
2023-05-06T04:45:30.463Z,3.30
2023-05-06T04:47:32.599Z,4.15
2023-05-06T04:49:35.194Z,2.92
2023-05-06T04:51:37.169Z,3.13
2023-05-06T04:53:39.230Z,3.97
2023-05-06T04:55:41.405Z,3.10
2023-05-06T04:57:43.494Z,3.17
2023-05-06T04:59:45.454Z,4.43
2023-05-06T05:01:47.439Z,3.90
2023-05-06T05:03:49.727Z,4.18
2023-05-06T05:05:52.191Z,3.60
2023-05-06T05:07:54.247Z,3.75
2023-05-06T05:09:56.291Z,4.20
2023-05-06T05:11:58.249Z,4.55
2023-05-06T05:14:02.146Z,4.28
2023-05-06T05:16:05.008Z,3.95
2023-05-06T05:18:07.002Z,3.22
2023-05-06T05:20:09.625Z,4.05
2023-05-06T05:22:11.976Z,2.97
2023-05-06T05:24:13.926Z,3.28
2023-05-06T05:26:15.934Z,4.00
2023-05-06T05:28:17.817Z,3.45
2023-05-06T05:30:19.855Z,3.17
2023-05-06T05:32:22.001Z,3.50
2023-05-06T05:34:24.293Z,5.15
2023-05-06T05:36:28.393Z,3.33
2023-05-06T05:38:30.428Z,3.30
2023-05-06T05:40:32.429Z,3.60
2023-05-06T05:42:34.455Z,4.20
2023-05-06T05:44:36.651Z,4.32
2023-05-06T05:46:38.846Z,4.70
2023-05-06T05:48:40.881Z,4.50
2023-05-06T05:50:42.788Z,3.85
2023-05-06T05:52:44.719Z,4.63
2023-05-06T05:54:46.705Z,4.32
2023-05-06T05:56:48.898Z,3.70
2023-05-06T05:58:51.017Z,3.10
2023-05-06T06:00:53.109Z,3.28
2023-05-06T06:02:55.573Z,3.42
2023-05-06T06:04:57.744Z,3.50
2023-05-06T06:07:01.968Z,3.33
2023-05-06T06:09:04.534Z,4.13
2023-05-06T06:11:06.935Z,3.42
2023-05-06T06:13:08.946Z,3.45
2023-05-06T06:15:11.948Z,3.50
2023-05-06T06:17:15.577Z,3.13
2023-05-06T06:19:18.058Z,4.05
2023-05-06T06:21:20.109Z,3.30
2023-05-06T06:23:22.485Z,3.97
2023-05-06T06:25:24.477Z,3.17
2023-05-06T06:27:26.563Z,2.95
2023-05-06T06:29:28.800Z,3.75
2023-05-06T06:31:30.849Z,2.95
2023-05-06T06:33:32.852Z,2.28
2023-05-06T06:35:35.017Z,2.55
2023-05-06T06:37:37.020Z,2.85
2023-05-06T06:39:39.072Z,2.75
2023-05-06T06:41:41.066Z,2.42
2023-05-06T06:43:43.193Z,2.40
2023-05-06T06:45:47.961Z,2.33
2023-05-06T06:47:50.331Z,3.00
2023-05-06T06:49:52.617Z,2.13
2023-05-06T06:51:56.875Z,2.35
2023-05-06T06:53:59.015Z,2.60
2023-05-06T06:56:01.351Z,2.40
2023-05-06T06:58:03.468Z,1.88
2023-05-06T07:00:06.256Z,2.15
2023-05-06T07:02:08.420Z,2.30
2023-05-06T07:04:10.400Z,2.72
2023-05-06T07:06:12.702Z,2.33
2023-05-06T07:08:15.219Z,2.13
2023-05-06T07:10:17.186Z,2.83
2023-05-06T07:12:19.186Z,1.95
2023-05-06T07:14:21.245Z,2.38
2023-05-06T07:16:23.341Z,2.90
2023-05-06T07:18:25.482Z,2.58
2023-05-06T07:20:27.603Z,2.85
2023-05-06T07:22:29.822Z,2.63
2023-05-06T07:24:31.811Z,2.58
2023-05-06T07:26:36.756Z,2.95
2023-05-06T07:28:38.802Z,2.97
2023-05-06T07:30:40.877Z,2.63
2023-05-06T07:32:43.643Z,2.40
2023-05-06T07:34:45.739Z,2.72
2023-05-06T07:36:47.804Z,2.78
2023-05-06T07:38:50.076Z,2.90
2023-05-06T07:40:52.187Z,2.97
2023-05-06T07:42:54.415Z,3.20
2023-05-06T07:44:56.514Z,2.85
2023-05-06T07:46:58.715Z,2.83
2023-05-06T07:49:01.082Z,2.53
2023-05-06T07:51:04.014Z,2.30
2023-05-06T07:53:06.321Z,2.85
2023-05-06T07:55:10.283Z,2.60
2023-05-06T07:57:12.609Z,2.13
2023-05-06T07:59:14.908Z,3.13
2023-05-06T08:01:16.910Z,2.72
2023-05-06T08:03:19.461Z,2.85
2023-05-06T08:05:21.681Z,3.67
2023-05-06T08:07:23.857Z,2.75
2023-05-06T08:09:25.965Z,3.05
2023-05-06T08:11:27.940Z,2.78
2023-05-06T08:13:30.839Z,3.30
2023-05-06T08:15:32.935Z,3.08
2023-05-06T08:17:35.027Z,2.60
2023-05-06T08:19:37.221Z,3.50
2023-05-06T08:21:39.321Z,3.28
2023-05-06T08:23:41.660Z,2.83
2023-05-06T08:25:43.695Z,3.42
2023-05-06T08:27:46.072Z,3.58
2023-05-06T08:29:48.147Z,3.38
2023-05-06T08:31:50.228Z,2.88
2023-05-06T08:33:54.400Z,4.75
2023-05-06T08:35:58.712Z,4.15
2023-05-06T08:38:01.229Z,3.35
2023-05-06T08:40:05.423Z,3.47
2023-05-06T08:42:11.920Z,3.40
2023-05-06T08:44:18.675Z,3.53
2023-05-06T08:46:21.002Z,3.00
2023-05-06T08:48:23.140Z,2.92
2023-05-06T08:50:26.092Z,3.03
2023-05-06T08:52:28.906Z,3.22
2023-05-06T08:54:34.823Z,4.35
2023-05-06T08:56:38.703Z,4.80
2023-05-06T08:58:46.199Z,5.40
2023-05-06T09:00:48.765Z,5.10
2023-05-06T09:02:50.894Z,4.85
2023-05-06T09:04:54.409Z,5.40
2023-05-06T09:06:59.286Z,5.18
2023-05-06T09:09:01.461Z,6.40
2023-05-06T09:11:03.648Z,8.27
2023-05-06T09:13:05.714Z,7.32
2023-05-06T09:15:09.652Z,15.95
2023-05-06T09:17:24.276Z,14.15
2023-05-06T09:19:27.725Z,27.73
2023-05-06T09:21:34.954Z,19.48
2023-05-06T09:23:38.508Z,43.42
2023-05-06T09:25:41.176Z,12.15
2023-05-06T09:27:43.279Z,14.10
2023-05-06T09:30:01.936Z,12.10
2023-05-06T09:32:09.166Z,4.35
2023-05-06T09:34:12.147Z,4.97
2023-05-06T09:36:14.566Z,4.55
2023-05-06T09:38:16.684Z,4.47
2023-05-06T09:40:18.925Z,3.33
2023-05-06T09:42:25.667Z,2.67
2023-05-06T09:44:28.085Z,1.75
2023-05-06T09:46:30.615Z,1.77
2023-05-06T09:48:32.966Z,1.08
2023-05-06T09:50:36.372Z,1.10
2023-05-06T09:52:38.676Z,1.55
2023-05-06T09:54:41.990Z,1.50
2023-05-06T09:56:46.749Z,1.45
2023-05-06T09:58:50.372Z,2.17
2023-05-06T10:00:53.802Z,2.20
2023-05-06T10:02:57.323Z,2.08
2023-05-06T10:05:01.133Z,1.88
2023-05-06T10:07:04.177Z,1.98
2023-05-06T10:09:08.157Z,1.80
2023-05-06T10:11:11.061Z,1.90
2023-05-06T10:13:14.318Z,1.63
2023-05-06T10:15:17.069Z,1.77
2023-05-06T10:17:19.608Z,1.60
2023-05-06T10:19:26.126Z,2.08
2023-05-06T10:21:32.673Z,1.05
2023-05-06T10:23:40.667Z,1.35
2023-05-06T10:25:43.999Z,0.90
2023-05-06T10:27:47.099Z,1.45
2023-05-06T10:29:49.597Z,1.60
2023-05-06T10:31:55.914Z,1.48
2023-05-06T10:34:01.301Z,1.20
2023-05-06T10:36:10.149Z,1.27
2023-05-06T10:38:18.492Z,1.10
2023-05-06T10:40:21.437Z,1.10
2023-05-06T10:42:28.613Z,1.33
2023-05-06T10:44:37.062Z,1.05
2023-05-06T10:46:45.682Z,1.10
2023-05-06T10:48:54.181Z,1.17
2023-05-06T10:51:02.496Z,1.38
2023-05-06T10:53:04.526Z,0.75
2023-05-06T10:55:27.980Z,1.40
2023-05-06T10:57:41.459Z,1.17
2023-05-06T10:59:47.532Z,1.35
2023-05-06T11:01:56.189Z,0.68
2023-05-06T11:03:58.800Z,1.02
2023-05-06T11:06:01.315Z,1.00
2023-05-06T11:08:10.667Z,0.82
2023-05-06T11:10:12.873Z,1.30
2023-05-06T11:12:21.136Z,1.08
2023-05-06T11:14:27.823Z,1.52
2023-05-06T11:16:42.549Z,1.88
2023-05-06T11:18:45.025Z,1.00
2023-05-06T11:20:47.143Z,1.10
2023-05-06T11:22:49.948Z,0.93
2023-05-06T11:24:52.250Z,0.93
2023-05-06T11:26:55.048Z,0.93
2023-05-06T11:29:02.397Z,1.02
2023-05-06T11:31:05.263Z,1.15
2023-05-06T11:33:08.854Z,1.35
2023-05-06T11:35:12.242Z,1.10
2023-05-06T11:37:26.007Z,1.20
2023-05-06T11:39:31.028Z,1.30
2023-05-06T11:41:33.152Z,1.30
2023-05-06T11:43:35.456Z,1.50
2023-05-06T11:45:44.315Z,0.80
2023-05-06T11:47:46.409Z,0.80
2023-05-06T11:49:52.427Z,1.27
2023-05-06T11:51:57.265Z,1.75
2023-05-06T11:54:05.266Z,1.48
2023-05-06T11:56:07.841Z,0.95
2023-05-06T11:58:14.874Z,1.15
2023-05-06T12:00:18.885Z,1.40
2023-05-06T12:02:21.249Z,1.30
2023-05-06T12:04:23.416Z,0.75
2023-05-06T12:06:31.795Z,0.73
2023-05-06T12:08:36.207Z,0.80
2023-05-06T12:10:39.945Z,0.75
2023-05-06T12:12:42.249Z,1.23
2023-05-06T12:14:45.852Z,0.65
2023-05-06T12:16:48.263Z,0.77
2023-05-06T12:18:53.797Z,0.88
2023-05-06T12:20:56.972Z,1.20
2023-05-06T12:23:05.468Z,0.70
2023-05-06T12:25:14.165Z,1.27
2023-05-06T12:27:31.242Z,0.85
2023-05-06T12:29:33.255Z,0.85
2023-05-06T12:31:35.499Z,0.82
2023-05-06T12:33:43.876Z,0.80
2023-05-06T12:35:46.098Z,0.90
2023-05-06T12:37:48.415Z,0.60
2023-05-06T12:39:50.485Z,0.55
2023-05-06T12:41:54.043Z,0.90
2023-05-06T12:43:56.477Z,0.63
2023-05-06T12:46:05.396Z,0.70
2023-05-06T12:48:08.496Z,0.70
2023-05-06T12:50:11.018Z,0.70
2023-05-06T12:52:13.798Z,0.75
2023-05-06T12:54:22.227Z,0.77
2023-05-06T12:56:24.416Z,1.02
2023-05-06T12:58:26.714Z,0.60
2023-05-06T13:00:29.027Z,0.90
2023-05-06T13:02:31.195Z,1.67
2023-05-06T13:04:33.384Z,0.98
2023-05-06T13:06:35.614Z,0.82
2023-05-06T13:08:37.917Z,0.70
2023-05-06T13:10:40.175Z,1.23
2023-05-06T13:12:42.550Z,0.90
2023-05-06T13:14:44.627Z,1.10
2023-05-06T13:16:47.117Z,0.95
2023-05-06T13:18:49.908Z,1.05
2023-05-06T13:20:52.111Z,0.90
2023-05-06T13:22:55.326Z,1.35
2023-05-06T13:24:57.838Z,0.70
2023-05-06T13:27:01.609Z,0.70
2023-05-06T13:29:04.471Z,0.80
2023-05-06T13:31:06.776Z,0.60
2023-05-06T13:33:09.166Z,0.40
2023-05-06T13:35:11.684Z,0.80
2023-05-06T13:37:14.135Z,0.70
2023-05-06T13:39:16.453Z,0.50
2023-05-06T13:41:19.959Z,0.50
2023-05-06T13:43:26.497Z,0.75
2023-05-06T13:45:29.196Z,0.60
2023-05-06T13:47:31.810Z,0.60
2023-05-06T13:49:34.976Z,0.60
2023-05-06T13:51:37.546Z,0.88
2023-05-06T13:53:39.681Z,0.30
2023-05-06T13:55:43.147Z,0.20
2023-05-06T13:57:45.388Z,0.30
2023-05-06T13:59:47.804Z,0.50
2023-05-06T14:01:50.314Z,0.38
2023-05-06T14:03:53.615Z,0.30
2023-05-06T14:05:56.584Z,0.30
2023-05-06T14:07:58.966Z,0.40
2023-05-06T14:10:01.266Z,0.50
2023-05-06T14:12:03.622Z,0.40
2023-05-06T14:14:06.694Z,0.40
2023-05-06T14:16:09.046Z,0.52
2023-05-06T14:18:11.327Z,0.50
2023-05-06T14:20:14.337Z,0.30
2023-05-06T14:22:16.871Z,0.30
2023-05-06T14:24:19.322Z,0.20
2023-05-06T14:26:21.693Z,0.30
2023-05-06T14:28:24.111Z,0.45
2023-05-06T14:30:26.599Z,0.65
2023-05-06T14:32:28.948Z,0.30
2023-05-06T14:34:31.179Z,0.30
2023-05-06T14:36:33.304Z,0.38
2023-05-06T14:38:35.325Z,0.50
2023-05-06T14:40:38.969Z,0.32
2023-05-06T14:42:41.142Z,0.40
2023-05-06T14:44:45.474Z,0.40
2023-05-06T14:46:48.259Z,0.50
2023-05-06T14:48:50.895Z,0.47
2023-05-06T14:50:53.374Z,0.40
2023-05-06T14:52:55.861Z,0.50
2023-05-06T14:54:58.128Z,0.40
2023-05-06T14:57:03.236Z,0.40
2023-05-06T14:59:05.739Z,0.40
2023-05-06T15:01:08.253Z,0.52
2023-05-06T15:03:10.482Z,0.40
2023-05-06T15:05:13.986Z,0.63
2023-05-06T15:07:16.917Z,0.50
2023-05-06T15:09:19.382Z,0.70
2023-05-06T15:11:21.702Z,1.13
2023-05-06T15:13:23.839Z,0.70
2023-05-06T15:15:26.010Z,0.45
2023-05-06T15:17:28.927Z,0.80
2023-05-06T15:19:31.080Z,0.80
2023-05-06T15:21:33.306Z,0.90
2023-05-06T15:23:35.498Z,0.90
2023-05-06T15:25:38.606Z,0.77
2023-05-06T15:27:41.119Z,1.00
2023-05-06T15:29:43.790Z,1.30
2023-05-06T15:31:46.473Z,1.00
2023-05-06T15:33:48.637Z,0.90
2023-05-06T15:35:50.912Z,1.13
2023-05-06T15:37:58.957Z,0.85
2023-05-06T15:40:01.430Z,1.00
2023-05-06T15:42:04.123Z,0.80
2023-05-06T15:44:06.653Z,0.70
2023-05-06T15:46:09.291Z,0.82
2023-05-06T15:48:11.668Z,0.95
2023-05-06T15:50:25.354Z,0.70
2023-05-06T15:52:35.664Z,0.98
2023-05-06T15:54:38.184Z,0.98
2023-05-06T15:56:41.610Z,0.90
2023-05-06T15:58:44.527Z,0.98
2023-05-06T16:00:46.820Z,1.13
2023-05-06T16:02:49.565Z,0.90
2023-05-06T16:04:52.088Z,0.90
2023-05-06T16:06:54.315Z,1.85
2023-05-06T16:08:56.902Z,1.20
2023-05-06T16:10:59.680Z,1.30
2023-05-06T16:13:01.833Z,1.00
2023-05-06T16:15:04.497Z,0.90
2023-05-06T16:17:06.703Z,1.10
2023-05-06T16:19:10.494Z,1.40
2023-05-06T16:21:13.231Z,1.20
2023-05-06T16:23:16.451Z,1.33
2023-05-06T16:25:18.582Z,1.20
2023-05-06T16:27:21.058Z,1.30
2023-05-06T16:29:23.284Z,1.25
2023-05-06T16:31:25.529Z,1.90
2023-05-06T16:33:28.072Z,1.67
2023-05-06T16:35:30.624Z,1.25
2023-05-06T16:37:32.819Z,1.52
2023-05-06T16:39:35.307Z,1.85
2023-05-06T16:41:37.310Z,1.48
2023-05-06T16:43:39.535Z,1.30
2023-05-06T16:45:45.787Z,1.67
2023-05-06T16:47:48.433Z,1.33
2023-05-06T16:49:51.047Z,1.40
2023-05-06T16:51:53.331Z,1.30
2023-05-06T16:53:55.481Z,1.10
2023-05-06T16:55:57.873Z,1.13
2023-05-06T16:58:02.230Z,1.48
2023-05-06T17:00:08.281Z,1.27
2023-05-06T17:02:10.666Z,1.10
2023-05-06T17:04:13.470Z,1.35
2023-05-06T17:06:15.794Z,1.30
2023-05-06T17:08:18.802Z,1.50
2023-05-06T17:10:22.354Z,1.42
2023-05-06T17:12:24.567Z,1.38
2023-05-06T17:14:26.938Z,1.55
2023-05-06T17:16:29.222Z,1.90
2023-05-06T17:18:31.396Z,1.90
2023-05-06T17:20:40.716Z,1.50
2023-05-06T17:22:50.429Z,2.75
2023-05-06T17:24:52.689Z,2.47
2023-05-06T17:26:54.762Z,2.17
2023-05-06T17:28:57.062Z,2.10
2023-05-06T17:30:59.680Z,2.35
2023-05-06T17:33:01.931Z,2.30
2023-05-06T17:35:04.483Z,2.90
2023-05-06T17:37:07.252Z,2.25
2023-05-06T17:39:09.725Z,3.00
2023-05-06T17:41:12.354Z,3.63
2023-05-06T17:43:14.612Z,2.70
2023-05-06T17:45:17.455Z,2.70
2023-05-06T17:47:22.978Z,2.40
2023-05-06T17:49:25.545Z,3.33
2023-05-06T17:51:27.852Z,3.03
2023-05-06T17:53:30.178Z,2.70
2023-05-06T17:55:32.458Z,2.78
2023-05-06T17:57:34.874Z,2.65
2023-05-06T17:59:37.412Z,3.13
2023-05-06T18:01:39.614Z,2.80
2023-05-06T18:03:41.943Z,2.88
2023-05-06T18:05:44.440Z,3.03
2023-05-06T18:07:47.139Z,3.30
2023-05-06T18:09:52.251Z,3.30
2023-05-06T18:11:54.475Z,3.53
2023-05-06T18:13:56.635Z,3.80
2023-05-06T18:15:58.785Z,3.45
2023-05-06T18:18:01.076Z,3.58
2023-05-06T18:20:03.860Z,3.25
2023-05-06T18:22:05.998Z,3.58
2023-05-06T18:24:16.088Z,3.70
2023-05-06T18:26:39.480Z,3.22
2023-05-06T18:28:41.562Z,3.33
2023-05-06T18:30:43.752Z,3.25
2023-05-06T18:32:45.954Z,3.67
2023-05-06T18:34:48.032Z,3.08
2023-05-06T18:36:50.290Z,3.40
2023-05-06T18:38:52.355Z,3.17
2023-05-06T18:40:54.584Z,3.80
2023-05-06T18:42:56.919Z,3.25
2023-05-06T18:44:59.638Z,3.40
2023-05-06T18:47:02.330Z,3.63
2023-05-06T18:49:04.685Z,2.75
2023-05-06T18:51:11.959Z,2.95
2023-05-06T18:53:14.152Z,4.53
2023-05-06T18:55:16.236Z,3.63
2023-05-06T18:57:19.910Z,2.92
2023-05-06T18:59:22.256Z,3.80
2023-05-06T19:01:25.326Z,3.00
2023-05-06T19:03:27.926Z,2.72
2023-05-06T19:05:30.321Z,3.22
2023-05-06T19:07:32.587Z,3.42
2023-05-06T19:09:37.549Z,6.00
2023-05-06T19:11:39.737Z,2.67
2023-05-06T19:13:44.672Z,2.72
2023-05-06T19:15:46.795Z,2.95
2023-05-06T19:17:48.931Z,2.65
2023-05-06T19:19:51.501Z,3.28
2023-05-06T19:21:54.105Z,2.90
2023-05-06T19:24:00.017Z,3.25
2023-05-06T19:26:02.739Z,2.72
2023-05-06T19:28:06.594Z,2.50
2023-05-06T19:30:09.950Z,2.92
2023-05-06T19:32:12.348Z,2.55
2023-05-06T19:34:14.414Z,2.65
2023-05-06T19:36:17.010Z,3.05
2023-05-06T19:38:19.963Z,3.00
2023-05-06T19:40:23.047Z,2.55
2023-05-06T19:42:25.176Z,3.05
2023-05-06T19:44:27.388Z,2.90
2023-05-06T19:46:29.503Z,2.83
2023-05-06T19:48:32.993Z,2.80
2023-05-06T19:50:36.908Z,2.95
2023-05-06T19:52:38.949Z,2.80
2023-05-06T19:54:41.873Z,2.90
2023-05-06T19:56:44.037Z,3.13
2023-05-06T19:58:46.237Z,2.80
2023-05-06T20:00:48.453Z,3.20
2023-05-06T20:02:50.803Z,2.75
2023-05-06T20:04:53.103Z,3.20
2023-05-06T20:06:55.257Z,3.17
2023-05-06T20:08:57.325Z,3.40
2023-05-06T20:10:59.480Z,3.70
2023-05-06T20:13:02.498Z,3.80
2023-05-06T20:15:05.310Z,3.72
2023-05-06T20:17:07.551Z,3.80
2023-05-06T20:19:09.822Z,3.72
2023-05-06T20:21:11.857Z,3.55
2023-05-06T20:23:14.033Z,3.70
2023-05-06T20:25:17.731Z,4.38
2023-05-06T20:27:21.568Z,4.30
2023-05-06T20:29:23.705Z,4.75
2023-05-06T20:31:25.880Z,4.68
2023-05-06T20:33:28.016Z,4.82
2023-05-06T20:35:30.296Z,4.57
2023-05-06T20:37:34.009Z,4.10
2023-05-06T20:39:36.687Z,4.95
2023-05-06T20:41:39.080Z,5.72
2023-05-06T20:43:41.409Z,5.13
2023-05-06T20:45:43.499Z,4.53
2023-05-06T20:47:45.836Z,5.03
2023-05-06T20:49:47.907Z,4.68
2023-05-06T20:51:50.039Z,4.80
2023-05-06T20:53:52.469Z,4.50
2023-05-06T20:55:54.821Z,4.93
2023-05-06T20:57:56.893Z,5.15
2023-05-06T20:59:58.904Z,4.70
2023-05-06T21:02:01.435Z,4.50
2023-05-06T21:04:04.917Z,5.40
2023-05-06T21:06:07.174Z,5.07
2023-05-06T21:08:09.146Z,5.20
2023-05-06T21:10:11.400Z,4.88
2023-05-06T21:12:13.420Z,4.63
2023-05-06T21:14:15.473Z,4.00
2023-05-06T21:16:17.580Z,4.55
2023-05-06T21:18:20.020Z,4.88
2023-05-06T21:20:22.297Z,5.20
2023-05-06T21:22:24.761Z,4.78
2023-05-06T21:24:26.917Z,5.63
2023-05-06T21:26:30.972Z,5.40
2023-05-06T21:28:32.956Z,4.88
2023-05-06T21:30:36.034Z,4.88
2023-05-06T21:32:38.495Z,6.53
2023-05-06T21:34:40.557Z,5.00
2023-05-06T21:36:42.569Z,5.88
2023-05-06T21:38:45.092Z,5.63
2023-05-06T21:40:47.118Z,6.07
2023-05-06T21:42:50.565Z,5.82
2023-05-06T21:44:52.515Z,5.30
2023-05-06T21:46:54.659Z,5.93
2023-05-06T21:48:57.209Z,5.95
2023-05-06T21:51:03.671Z,6.30
2023-05-06T21:53:05.786Z,5.82
2023-05-06T21:55:08.644Z,5.55
2023-05-06T21:57:12.674Z,5.45
2023-05-06T21:59:14.721Z,5.35
2023-05-06T22:01:17.052Z,5.72
2023-05-06T22:03:19.265Z,5.10
2023-05-06T22:05:21.775Z,5.28
2023-05-06T22:07:23.905Z,5.13
2023-05-06T22:09:26.130Z,5.30
2023-05-06T22:11:28.109Z,4.95
2023-05-06T22:13:30.204Z,5.40
2023-05-06T22:15:32.460Z,5.35
2023-05-06T22:17:34.883Z,5.05
2023-05-06T22:19:36.949Z,5.13
2023-05-06T22:21:39.528Z,5.15
2023-05-06T22:23:41.600Z,5.18
2023-05-06T22:25:43.599Z,4.93
2023-05-06T22:27:45.652Z,4.50
2023-05-06T22:29:47.596Z,4.78
2023-05-06T22:31:49.841Z,4.60
2023-05-06T22:33:55.679Z,4.53
2023-05-06T22:35:57.960Z,5.07
2023-05-06T22:38:00.055Z,4.68
2023-05-06T22:40:02.335Z,4.78
2023-05-06T22:42:04.264Z,4.68
2023-05-06T22:44:06.540Z,4.65
2023-05-06T22:46:08.668Z,4.15
2023-05-06T22:48:11.399Z,4.15
2023-05-06T22:50:13.488Z,3.88
2023-05-06T22:52:15.564Z,3.53
2023-05-06T22:54:17.608Z,3.38
2023-05-06T22:56:20.259Z,2.80
2023-05-06T22:58:22.241Z,2.40
2023-05-06T23:00:24.487Z,2.50
2023-05-06T23:02:26.703Z,2.42
2023-05-06T23:04:28.716Z,2.88
2023-05-06T23:06:31.900Z,2.15
2023-05-06T23:08:33.924Z,1.77
2023-05-06T23:10:36.619Z,2.10
2023-05-06T23:12:38.697Z,1.60
2023-05-06T23:14:40.859Z,1.52
2023-05-06T23:16:43.082Z,1.65
2023-05-06T23:18:46.367Z,1.40
2023-05-06T23:20:48.355Z,1.40
2023-05-06T23:22:50.541Z,1.30
2023-05-06T23:24:52.564Z,1.60
2023-05-06T23:26:54.681Z,1.50
2023-05-06T23:28:58.014Z,1.40
2023-05-06T23:31:00.735Z,1.55
2023-05-06T23:33:04.021Z,1.48
2023-05-06T23:35:07.914Z,1.48
2023-05-06T23:37:12.012Z,1.23
2023-05-06T23:39:14.069Z,1.40
2023-05-06T23:41:16.067Z,1.50
2023-05-06T23:43:18.028Z,1.50
2023-05-06T23:45:20.580Z,1.50
2023-05-06T23:47:24.579Z,1.63
2023-05-06T23:49:26.627Z,1.33
2023-05-06T23:51:28.644Z,1.52
2023-05-06T23:53:30.761Z,1.30
2023-05-06T23:55:33.052Z,1.60
2023-05-06T23:57:35.263Z,1.60
2023-05-06T23:59:37.436Z,1.63
